Time;durP1;ratioP1;P1;durP2;ratioP2;P2;SDS_P1;SDS_P2;PMS_P1;PMS_P2;Temp;Humidity;BMP_temperature;BMP_pressure;BME280_temperature;BME280_humidity;BME280_pressure;Samples;Min_cycle;Max_cycle;Signal;HPM_P1;HPM_P2
2021/07/09 00:01:55;;;;;;;55.20;28.15;;;15.80;99.90;;;;;;6347259;22;20010;-80
2021/07/09 00:04:22;;;;;;;48.20;27.95;;;15.90;99.90;;;;;;6313047;22;20091;-81
2021/07/09 00:06:49;;;;;;;49.33;26.58;;;15.80;99.90;;;;;;6347486;22;20030;-80
2021/07/09 00:09:15;;;;;;;45.40;27.13;;;15.80;99.90;;;;;;6283301;22;20022;-81
2021/07/09 00:11:44;;;;;;;45.22;26.85;;;15.80;99.90;;;;;;6337157;22;20034;-81
2021/07/09 00:14:11;;;;;;;45.47;26.10;;;15.80;99.90;;;;;;6319503;22;20094;-81
2021/07/09 00:16:37;;;;;;;48.17;25.70;;;15.80;99.90;;;;;;6309706;22;20018;-80
2021/07/09 00:19:07;;;;;;;41.00;24.83;;;15.80;99.90;;;;;;6319027;22;20019;-81
2021/07/09 00:21:35;;;;;;;42.42;25.52;;;15.80;99.90;;;;;;6319695;22;20022;-81
2021/07/09 00:24:03;;;;;;;38.78;25.25;;;15.80;99.90;;;;;;6346893;22;20021;-81
2021/07/09 00:26:29;;;;;;;41.70;26.02;;;15.80;99.90;;;;;;6308896;22;20006;-80
2021/07/09 00:28:57;;;;;;;42.75;26.95;;;15.80;99.90;;;;;;6346774;22;20015;-81
2021/07/09 00:31:25;;;;;;;45.65;25.67;;;15.70;99.90;;;;;;6310213;22;20022;-80
2021/07/09 00:33:52;;;;;;;46.05;26.83;;;15.70;99.90;;;;;;6345075;22;20022;-81
2021/07/09 00:36:18;;;;;;;42.92;24.73;;;15.70;99.90;;;;;;6337689;22;20110;-81
2021/07/09 00:38:44;;;;;;;43.67;26.25;;;15.70;99.90;;;;;;6345962;22;20094;-81
2021/07/09 00:41:10;;;;;;;38.50;24.48;;;15.60;99.90;;;;;;6347455;22;20089;-80
2021/07/09 00:43:38;;;;;;;33.60;22.50;;;15.50;99.90;;;;;;6319556;22;20077;-81
2021/07/09 00:46:05;;;;;;;34.42;21.92;;;15.40;99.90;;;;;;6309124;22;20064;-80
2021/07/09 00:48:31;;;;;;;34.67;22.73;;;15.40;99.90;;;;;;6308553;22;20014;-80
2021/07/09 00:51:05;;;;;;;34.28;22.08;;;15.40;99.90;;;;;;6332667;22;19995;-80
2021/07/09 00:53:31;;;;;;;30.88;20.20;;;15.40;99.90;;;;;;6363231;22;20034;-80
2021/07/09 00:55:57;;;;;;;36.17;23.67;;;15.40;99.90;;;;;;6336056;22;20011;-80
2021/07/09 00:58:24;;;;;;;35.78;23.85;;;15.30;99.90;;;;;;6373024;22;20064;-80
2021/07/09 01:00:50;;;;;;;32.20;21.48;;;15.40;99.90;;;;;;6368327;22;20047;-80
2021/07/09 01:03:16;;;;;;;30.48;20.83;;;15.20;99.90;;;;;;6333080;22;20019;-80
2021/07/09 01:05:42;;;;;;;32.13;20.55;;;15.20;99.90;;;;;;6343398;22;20040;-81
2021/07/09 01:08:10;;;;;;;32.55;21.58;;;15.20;99.90;;;;;;6342916;22;20018;-80
2021/07/09 01:10:35;;;;;;;38.33;23.35;;;15.10;99.90;;;;;;6309190;22;20104;-81
2021/07/09 01:13:01;;;;;;;31.40;21.33;;;15.10;99.90;;;;;;6347060;22;20015;-81
2021/07/09 01:15:27;;;;;;;32.90;20.80;;;15.10;99.90;;;;;;6336262;22;20018;-80
2021/07/09 01:17:53;;;;;;;39.17;21.42;;;15.00;99.90;;;;;;6319560;22;20065;-81
2021/07/09 01:20:20;;;;;;;30.92;21.42;;;15.00;99.90;;;;;;6318764;22;20096;-80
2021/07/09 01:22:49;;;;;;;34.92;22.20;;;14.90;99.90;;;;;;6308552;22;20017;-80
2021/07/09 01:25:16;;;;;;;36.72;21.88;;;14.90;99.90;;;;;;6318756;22;20093;-80
2021/07/09 01:27:44;;;;;;;49.15;27.33;;;14.90;99.90;;;;;;6308611;22;20019;-81
2021/07/09 01:30:13;;;;;;;32.53;21.33;;;15.00;99.90;;;;;;6344191;22;20022;-81
2021/07/09 01:32:39;;;;;;;30.23;20.40;;;15.00;99.90;;;;;;6308319;22;20019;-81
2021/07/09 01:35:06;;;;;;;35.40;22.20;;;14.90;99.90;;;;;;6295752;22;20081;-81
2021/07/09 01:37:32;;;;;;;34.42;21.30;;;15.00;99.90;;;;;;6276992;22;20023;-80
2021/07/09 01:39:58;;;;;;;42.92;23.85;;;15.00;99.90;;;;;;6288439;22;20019;-80
2021/07/09 01:42:24;;;;;;;34.83;23.25;;;15.00;99.90;;;;;;6288028;22;20011;-81
2021/07/09 01:44:49;;;;;;;38.83;23.90;;;15.00;99.90;;;;;;6306148;22;20037;-80
2021/07/09 01:47:16;;;;;;;37.47;24.35;;;15.00;99.90;;;;;;6290415;22;20034;-81
2021/07/09 01:49:55;;;;;;;40.35;23.73;;;15.10;99.90;;;;;;6280167;22;20428;-80
2021/07/09 01:52:22;;;;;;;43.15;25.58;;;15.10;99.90;;;;;;6316585;22;20018;-80
2021/07/09 01:54:48;;;;;;;35.78;23.55;;;15.10;99.90;;;;;;6317273;22;20026;-81
2021/07/09 01:57:14;;;;;;;44.33;25.42;;;15.10;99.90;;;;;;6253808;22;20015;-80
2021/07/09 01:59:41;;;;;;;43.90;26.30;;;15.10;99.90;;;;;;6289048;22;20431;-81
2021/07/09 02:02:07;;;;;;;45.60;27.45;;;15.10;99.90;;;;;;6317293;22;20184;-81
2021/07/09 02:04:42;;;;;;;51.33;28.73;;;15.20;99.90;;;;;;6283425;22;20022;-81
2021/07/09 02:07:08;;;;;;;55.33;31.25;;;15.10;99.90;;;;;;6291043;22;20019;-81
2021/07/09 02:09:33;;;;;;;62.35;33.38;;;15.10;99.90;;;;;;6279122;22;20015;-80
2021/07/09 02:12:00;;;;;;;63.08;32.83;;;15.10;99.90;;;;;;6279279;22;20011;-80
2021/07/09 02:14:28;;;;;;;64.07;32.97;;;15.10;99.90;;;;;;6307212;22;20011;-81
2021/07/09 02:16:54;;;;;;;66.65;32.42;;;15.10;99.90;;;;;;6278909;22;20003;-81
2021/07/09 02:19:20;;;;;;;64.55;32.72;;;15.10;99.90;;;;;;6316744;22;20034;-81
2021/07/09 02:21:47;;;;;;;63.03;30.45;;;15.10;99.90;;;;;;6317524;22;20026;-80
2021/07/09 02:24:15;;;;;;;51.38;28.48;;;15.10;99.90;;;;;;6316045;22;20022;-80
2021/07/09 02:26:42;;;;;;;55.55;29.60;;;15.10;99.90;;;;;;6317265;22;20137;-81
2021/07/09 02:29:08;;;;;;;55.80;28.70;;;15.10;99.90;;;;;;6306211;22;20015;-81
2021/07/09 02:31:34;;;;;;;49.78;27.90;;;15.10;99.90;;;;;;6281416;22;20007;-81
2021/07/09 02:34:00;;;;;;;50.03;27.58;;;15.20;99.90;;;;;;6306190;22;20088;-81
2021/07/09 02:36:26;;;;;;;47.72;27.27;;;15.20;99.90;;;;;;6308937;22;20382;-80
2021/07/09 02:38:52;;;;;;;41.72;25.92;;;15.20;99.90;;;;;;6308388;22;20072;-81
2021/07/09 02:41:18;;;;;;;37.80;23.95;;;15.30;99.90;;;;;;6348185;22;20038;-81
2021/07/09 02:43:44;;;;;;;43.97;26.40;;;15.20;99.90;;;;;;6310385;22;20093;-80
2021/07/09 02:46:10;;;;;;;48.28;27.48;;;15.30;99.90;;;;;;6341717;22;20017;-80
2021/07/09 02:48:36;;;;;;;40.95;26.48;;;15.20;99.90;;;;;;6346900;22;20025;-81
2021/07/09 02:51:02;;;;;;;44.08;27.23;;;15.30;99.90;;;;;;6310604;22;20389;-81
2021/07/09 02:53:28;;;;;;;38.75;25.73;;;15.30;99.90;;;;;;6308618;22;20011;-81
2021/07/09 02:55:55;;;;;;;44.05;26.88;;;15.30;99.90;;;;;;6309250;22;20330;-80
2021/07/09 02:58:21;;;;;;;44.40;27.50;;;15.30;99.90;;;;;;6319768;22;20091;-81
2021/07/09 03:00:47;;;;;;;40.55;26.20;;;15.30;99.90;;;;;;6308894;22;20403;-81
2021/07/09 03:03:12;;;;;;;44.10;27.77;;;15.30;99.90;;;;;;6337216;22;20011;-80
2021/07/09 03:05:38;;;;;;;52.78;27.55;;;15.30;99.90;;;;;;6325111;22;20080;-80
2021/07/09 03:08:04;;;;;;;42.67;27.88;;;15.30;99.90;;;;;;6354479;22;20049;-81
2021/07/09 03:10:30;;;;;;;40.20;26.58;;;15.30;99.90;;;;;;6352761;22;20020;-80
2021/07/09 03:12:56;;;;;;;38.05;26.25;;;15.30;99.90;;;;;;6312332;22;20419;-81
2021/07/09 03:19:15;;;;;;;47.13;27.20;;;15.30;99.90;;;;;;6339910;22;20068;-80
2021/07/09 03:21:40;;;;;;;45.53;27.83;;;15.30;99.90;;;;;;6337927;22;20034;-81
2021/07/09 03:24:06;;;;;;;48.92;28.58;;;15.30;99.90;;;;;;6348038;22;20007;-81
2021/07/09 03:26:33;;;;;;;43.83;27.75;;;15.30;99.90;;;;;;6348259;22;20081;-81
2021/07/09 03:28:59;;;;;;;49.20;28.15;;;15.40;99.90;;;;;;6320988;22;20503;-81
2021/07/09 03:31:30;;;;;;;53.50;27.92;;;15.30;99.90;;;;;;6337258;22;20013;-80
2021/07/09 03:33:56;;;;;;;50.17;28.65;;;15.40;99.90;;;;;;6310014;22;20018;-81
2021/07/09 03:36:22;;;;;;;48.08;27.83;;;15.40;99.90;;;;;;6287998;22;20019;-81
2021/07/09 03:38:48;;;;;;;50.92;29.02;;;15.40;99.90;;;;;;6316120;22;20068;-81
2021/07/09 03:41:15;;;;;;;51.90;27.73;;;15.40;99.90;;;;;;6317302;22;20014;-82
2021/07/09 03:43:40;;;;;;;45.70;28.27;;;15.50;99.90;;;;;;6289557;22;20015;-80
2021/07/09 03:46:06;;;;;;;47.03;27.40;;;15.40;99.90;;;;;;6311080;22;20336;-80
2021/07/09 03:48:32;;;;;;;46.22;28.60;;;15.40;99.90;;;;;;6278550;22;20015;-80
2021/07/09 03:50:58;;;;;;;45.45;27.95;;;15.50;99.90;;;;;;6306951;22;20015;-81
2021/07/09 03:53:24;;;;;;;49.00;28.98;;;15.50;99.90;;;;;;6278666;22;20488;-81
2021/07/09 03:55:50;;;;;;;49.17;29.45;;;15.50;99.90;;;;;;6290180;22;20082;-80
2021/07/09 03:58:15;;;;;;;44.45;28.48;;;15.60;99.90;;;;;;6317181;22;20007;-81
2021/07/09 04:00:43;;;;;;;46.95;29.02;;;15.60;99.90;;;;;;6317401;22;20015;-81
2021/07/09 04:03:09;;;;;;;47.95;28.80;;;15.60;99.90;;;;;;6279680;22;20011;-80
2021/07/09 04:05:35;;;;;;;48.60;29.40;;;15.60;99.90;;;;;;6307297;22;20007;-80
2021/07/09 04:08:01;;;;;;;46.83;28.98;;;15.70;99.90;;;;;;6278278;22;20427;-81
2021/07/09 04:10:27;;;;;;;44.40;28.48;;;15.60;99.90;;;;;;6280229;22;20018;-81
2021/07/09 04:12:53;;;;;;;49.05;28.63;;;15.70;99.90;;;;;;6279456;22;20065;-81
2021/07/09 04:15:20;;;;;;;49.92;29.55;;;15.70;99.90;;;;;;6306337;22;20366;-81
2021/07/09 04:17:46;;;;;;;43.00;27.40;;;15.70;99.90;;;;;;6306827;22;20090;-81
2021/07/09 04:20:13;;;;;;;52.25;30.35;;;15.70;99.90;;;;;;6278560;22;20008;-81
2021/07/09 04:22:39;;;;;;;50.05;28.65;;;15.70;99.90;;;;;;6277099;22;20043;-80
2021/07/09 04:25:08;;;;;;;51.33;28.52;;;15.60;99.90;;;;;;6288898;22;20060;-80
2021/07/09 04:27:35;;;;;;;44.83;28.13;;;15.70;99.90;;;;;;6321180;22;20015;-81
2021/07/09 04:30:29;;;;;;;44.85;28.25;;;15.70;99.90;;;;;;6317405;22;20031;-81
2021/07/09 04:32:55;;;;;;;41.95;27.70;;;15.70;99.90;;;;;;6286530;22;20014;-81
2021/07/09 04:35:21;;;;;;;48.42;29.40;;;15.70;99.90;;;;;;6318827;22;20094;-80
2021/07/09 04:37:47;;;;;;;46.08;29.00;;;15.70;99.90;;;;;;6312839;22;20018;-81
2021/07/09 04:40:15;;;;;;;48.25;29.63;;;15.70;99.90;;;;;;6348772;22;20015;-80
2021/07/09 04:42:41;;;;;;;44.33;28.95;;;15.70;99.90;;;;;;6322021;22;20021;-81
2021/07/09 04:45:08;;;;;;;50.17;28.33;;;15.70;99.90;;;;;;6308882;22;20052;-80
2021/07/09 04:47:34;;;;;;;43.80;27.92;;;15.70;99.90;;;;;;6336449;22;20089;-80
2021/07/09 04:50:00;;;;;;;49.50;27.65;;;15.70;99.90;;;;;;6318959;22;20347;-80
2021/07/09 04:52:27;;;;;;;43.17;27.40;;;15.70;99.90;;;;;;6346748;22;20030;-80
2021/07/09 04:54:54;;;;;;;45.70;28.05;;;15.70;99.90;;;;;;6309414;22;20014;-80
2021/07/09 04:57:20;;;;;;;42.38;27.70;;;15.80;99.90;;;;;;6319205;22;20022;-81
2021/07/09 04:59:46;;;;;;;42.92;25.75;;;15.70;99.90;;;;;;6336588;22;20094;-80
2021/07/09 05:02:12;;;;;;;46.70;27.25;;;15.80;99.90;;;;;;6336597;22;20031;-81
2021/07/09 05:04:38;;;;;;;44.10;27.23;;;15.80;99.90;;;;;;6339588;22;20384;-81
2021/07/09 05:07:04;;;;;;;41.58;26.50;;;15.80;99.90;;;;;;6308402;22;20010;-81
2021/07/09 05:09:30;;;;;;;44.17;27.65;;;15.80;99.90;;;;;;6336193;22;20015;-80
2021/07/09 05:11:56;;;;;;;46.90;28.58;;;15.80;99.90;;;;;;6347176;22;20054;-80
2021/07/09 05:14:24;;;;;;;47.58;28.77;;;15.90;99.90;;;;;;6347078;22;20015;-80
2021/07/09 05:16:50;;;;;;;43.75;27.65;;;15.80;99.90;;;;;;6336424;22;20026;-81
2021/07/09 05:19:18;;;;;;;50.35;29.25;;;15.90;99.90;;;;;;6284514;22;20436;-80
2021/07/09 05:21:44;;;;;;;53.90;29.75;;;15.80;99.90;;;;;;6310909;22;20049;-80
2021/07/09 05:24:11;;;;;;;44.92;28.80;;;15.80;99.90;;;;;;6309734;22;20075;-79
2021/07/09 05:26:38;;;;;;;51.65;28.92;;;15.90;99.90;;;;;;6310561;22;20011;-80
2021/07/09 05:29:04;;;;;;;44.97;28.92;;;15.90;99.90;;;;;;6311130;22;20021;-81
2021/07/09 05:31:32;;;;;;;46.70;29.75;;;16.00;99.90;;;;;;6311868;22;20007;-81
2021/07/09 05:33:59;;;;;;;47.10;27.73;;;16.10;99.90;;;;;;6349977;22;20011;-81
2021/07/09 05:36:25;;;;;;;40.55;26.90;;;16.20;99.90;;;;;;6288435;22;20011;-81
2021/07/09 05:38:51;;;;;;;42.53;28.08;;;16.20;99.90;;;;;;6290465;22;20385;-81
2021/07/09 05:41:16;;;;;;;43.67;27.20;;;16.30;99.90;;;;;;6281197;22;20086;-81
2021/07/09 05:43:43;;;;;;;42.95;27.55;;;16.40;99.90;;;;;;6307995;22;20012;-78
2021/07/09 05:46:09;;;;;;;44.63;27.80;;;16.40;99.90;;;;;;6313014;22;20090;-78
2021/07/09 05:48:35;;;;;;;43.25;27.67;;;16.40;99.90;;;;;;6318027;22;20319;-80
2021/07/09 05:51:01;;;;;;;44.15;27.15;;;16.50;99.90;;;;;;6290901;22;20007;-80
2021/07/09 05:53:29;;;;;;;39.83;26.98;;;16.60;99.90;;;;;;6279561;22;20035;-81
2021/07/09 05:55:55;;;;;;;40.90;25.98;;;16.70;99.90;;;;;;6280662;22;20011;-80
2021/07/09 05:58:21;;;;;;;39.80;25.92;;;16.70;99.90;;;;;;6290537;22;20384;-78
2021/07/09 06:00:46;;;;;;;40.05;25.63;;;16.70;99.90;;;;;;6279789;22;20094;-78
2021/07/09 06:03:12;;;;;;;36.78;24.67;;;16.80;99.90;;;;;;6316353;22;20339;-79
2021/07/09 06:05:38;;;;;;;37.03;24.52;;;16.80;99.90;;;;;;6290842;22;20056;-79
2021/07/09 06:08:05;;;;;;;36.47;24.10;;;16.80;99.90;;;;;;6290242;22;20011;-81
2021/07/09 06:10:32;;;;;;;36.83;24.70;;;16.90;99.90;;;;;;6280282;22;20080;-80
2021/07/09 06:12:58;;;;;;;37.67;24.15;;;17.00;99.90;;;;;;6307449;22;20018;-78
2021/07/09 06:15:25;;;;;;;36.47;24.42;;;17.00;99.90;;;;;;6307489;22;20086;-80
2021/07/09 06:17:51;;;;;;;39.97;24.65;;;17.00;99.90;;;;;;6316198;22;20021;-81
2021/07/09 06:20:17;;;;;;;38.92;24.55;;;17.00;99.90;;;;;;6279043;22;20093;-80
2021/07/09 06:22:43;;;;;;;33.15;23.23;;;17.00;99.90;;;;;;6289121;22;20011;-80
2021/07/09 06:25:10;;;;;;;40.78;24.33;;;17.00;99.90;;;;;;6279093;22;20018;-80
2021/07/09 06:27:36;;;;;;;37.33;23.52;;;17.00;99.90;;;;;;6278853;22;20022;-81
2021/07/09 06:30:02;;;;;;;36.90;23.42;;;17.10;99.90;;;;;;6279729;22;20015;-80
2021/07/09 06:32:29;;;;;;;33.92;22.63;;;17.10;99.90;;;;;;6278939;22;20106;-79
2021/07/09 06:34:54;;;;;;;38.28;21.80;;;17.30;99.90;;;;;;6283027;22;20442;-79
2021/07/09 06:37:20;;;;;;;33.03;21.83;;;17.30;99.90;;;;;;6347999;22;20015;-80
2021/07/09 06:39:46;;;;;;;31.75;21.83;;;17.40;99.90;;;;;;6310018;22;20015;-80
2021/07/09 06:42:12;;;;;;;32.65;21.52;;;17.40;99.90;;;;;;6348531;22;20018;-80
2021/07/09 06:44:38;;;;;;;33.05;22.02;;;17.50;99.90;;;;;;6310578;22;20071;-80
2021/07/09 06:47:04;;;;;;;27.92;21.35;;;17.50;99.90;;;;;;6340288;22;20082;-80
2021/07/09 06:49:29;;;;;;;26.77;19.48;;;17.50;99.90;;;;;;6310058;22;20019;-80
2021/07/09 06:51:55;;;;;;;30.25;20.00;;;17.50;99.90;;;;;;6348886;22;20014;-80
2021/07/09 06:54:21;;;;;;;31.58;19.15;;;17.50;99.90;;;;;;6337656;22;20018;-80
2021/07/09 06:56:47;;;;;;;25.10;17.08;;;17.60;99.90;;;;;;6338296;22;20437;-80
2021/07/09 06:59:13;;;;;;;24.65;17.98;;;17.70;99.90;;;;;;6338017;22;20018;-80
2021/07/09 07:01:39;;;;;;;28.35;18.92;;;17.80;99.90;;;;;;6309719;22;20435;-79
2021/07/09 07:04:07;;;;;;;30.60;20.13;;;17.90;99.90;;;;;;6343319;22;20006;-78
2021/07/09 07:06:33;;;;;;;27.40;17.20;;;18.10;99.90;;;;;;6337914;22;20007;-79
2021/07/09 07:08:59;;;;;;;24.88;16.35;;;18.10;99.90;;;;;;6310419;22;20439;-78
2021/07/09 07:11:25;;;;;;;23.70;16.13;;;18.10;99.90;;;;;;6311039;22;20068;-81
2021/07/09 07:13:51;;;;;;;23.83;15.32;;;18.00;99.90;;;;;;6338023;22;20019;-80
2021/07/09 07:16:16;;;;;;;25.02;16.30;;;18.00;99.90;;;;;;6343687;22;20006;-82
2021/07/09 07:18:42;;;;;;;20.83;16.13;;;18.00;99.90;;;;;;6348726;22;20445;-81
2021/07/09 07:21:08;;;;;;;19.63;13.57;;;18.10;99.90;;;;;;6285583;22;20395;-81
2021/07/09 07:23:34;;;;;;;19.48;14.27;;;18.10;99.90;;;;;;6309467;22;20022;-80
2021/07/09 07:26:00;;;;;;;16.98;11.68;;;18.20;99.90;;;;;;6309318;22;20103;-82
2021/07/09 07:28:26;;;;;;;17.48;12.65;;;18.30;99.90;;;;;;6309366;22;20335;-81
2021/07/09 07:31:29;;;;;;;21.30;13.68;;;18.30;99.90;;;;;;6310960;22;20079;-80
2021/07/09 07:33:55;;;;;;;20.20;13.57;;;18.30;99.90;;;;;;6309657;22;20019;-82
2021/07/09 07:36:22;;;;;;;21.52;14.80;;;18.40;99.90;;;;;;6311620;22;20031;-82
2021/07/09 07:38:48;;;;;;;19.83;14.05;;;18.50;99.90;;;;;;6282894;22;20152;-82
2021/07/09 07:41:18;;;;;;;22.15;14.48;;;18.60;99.90;;;;;;6309935;22;20015;-81
2021/07/09 07:43:45;;;;;;;19.70;13.40;;;18.80;99.90;;;;;;6348940;22;20312;-81
2021/07/09 07:46:13;;;;;;;20.85;13.27;;;19.00;99.90;;;;;;6338147;22;20013;-82
2021/07/09 07:48:39;;;;;;;18.08;11.77;;;19.00;99.90;;;;;;6338397;22;20010;-82
2021/07/09 07:51:05;;;;;;;17.05;13.18;;;19.20;99.90;;;;;;6310728;22;20017;-82
2021/07/09 07:53:34;;;;;;;19.95;12.68;;;19.10;99.90;;;;;;6309541;22;20343;-81
2021/07/09 07:56:02;;;;;;;14.73;10.48;;;19.10;99.90;;;;;;6310446;22;20022;-81
2021/07/09 07:58:28;;;;;;;14.75;10.27;;;19.10;99.90;;;;;;6348552;22;20006;-81
2021/07/09 08:00:54;;;;;;;19.42;10.30;;;19.00;99.90;;;;;;6346344;22;20017;-81
2021/07/09 08:03:20;;;;;;;16.85;10.68;;;19.20;99.90;;;;;;6310073;22;20014;-81
2021/07/09 08:05:45;;;;;;;13.10;9.43;;;19.40;99.90;;;;;;6338636;22;20403;-81
2021/07/09 08:08:13;;;;;;;15.88;9.85;;;19.80;99.90;;;;;;6310746;22;20036;-81
2021/07/09 08:10:39;;;;;;;13.02;8.15;;;20.10;99.90;;;;;;6311299;22;20048;-82
2021/07/09 08:13:07;;;;;;;13.15;8.40;;;20.10;99.90;;;;;;6310700;22;20025;-81
2021/07/09 08:15:32;;;;;;;12.02;8.27;;;20.40;99.90;;;;;;6310173;22;20022;-81
2021/07/09 08:17:59;;;;;;;11.95;7.93;;;20.30;99.90;;;;;;6310536;22;20037;-81
2021/07/09 08:20:25;;;;;;;10.27;6.60;;;20.40;99.90;;;;;;6284421;22;20435;-83
2021/07/09 08:22:50;;;;;;;12.48;7.07;;;20.20;99.90;;;;;;6309186;22;20022;-80
2021/07/09 08:25:16;;;;;;;15.43;7.95;;;19.90;99.90;;;;;;6337792;22;20119;-82
2021/07/09 08:27:44;;;;;;;10.98;8.18;;;20.10;99.90;;;;;;6310853;22;20021;-82
2021/07/09 08:30:11;;;;;;;9.98;7.68;;;20.10;99.90;;;;;;6284615;22;20019;-82
2021/07/09 08:32:37;;;;;;;10.63;7.78;;;20.00;99.90;;;;;;6338730;22;20014;-82
2021/07/09 08:35:04;;;;;;;9.20;7.43;;;20.00;99.90;;;;;;6310600;22;20106;-83
2021/07/09 08:37:30;;;;;;;11.95;7.35;;;20.00;99.90;;;;;;6308881;22;20514;-81
2021/07/09 08:39:57;;;;;;;11.32;7.90;;;19.70;99.90;;;;;;6337524;22;20032;-82
2021/07/09 08:42:23;;;;;;;9.82;7.35;;;19.90;99.90;;;;;;6336810;22;20064;-81
2021/07/09 08:44:48;;;;;;;13.43;9.57;;;20.20;99.90;;;;;;6347137;22;20011;-81
2021/07/09 08:47:14;;;;;;;12.73;8.45;;;20.30;99.90;;;;;;6340202;22;20045;-80
2021/07/09 08:49:41;;;;;;;10.40;7.68;;;20.10;99.90;;;;;;6320004;22;20011;-81
2021/07/09 08:52:07;;;;;;;11.73;7.95;;;20.40;99.90;;;;;;6308541;22;20025;-79
2021/07/09 08:54:34;;;;;;;10.80;8.05;;;20.40;99.90;;;;;;6349151;22;20011;-80
2021/07/09 08:57:01;;;;;;;14.25;9.00;;;20.60;99.90;;;;;;6311690;22;20018;-80
2021/07/09 08:59:28;;;;;;;10.52;7.97;;;20.80;99.90;;;;;;6339968;22;20045;-81
2021/07/09 09:02:03;;;;;;;10.27;8.15;;;20.40;99.90;;;;;;6291891;22;20017;-81
2021/07/09 09:04:37;;;;;;;12.02;8.65;;;20.10;99.90;;;;;;6311683;22;20015;-81
2021/07/09 09:07:11;;;;;;;11.05;8.15;;;20.40;99.90;;;;;;6349156;22;20041;-81
2021/07/09 09:09:41;;;;;;;11.07;7.85;;;20.40;99.90;;;;;;6322389;22;20045;-81
2021/07/09 09:12:13;;;;;;;10.05;6.15;;;20.70;99.90;;;;;;6338685;22;20014;-82
2021/07/09 09:14:43;;;;;;;9.98;6.90;;;20.60;99.90;;;;;;6349572;22;20023;-81
2021/07/09 09:18:00;;;;;;;10.85;7.00;;;21.00;99.90;;;;;;6310690;22;20010;-84
2021/07/09 09:21:06;;;;;;;10.20;8.00;;;21.30;99.90;;;;;;6100505;23;20018;-85
2021/07/09 09:23:54;;;;;;;10.45;6.82;;;21.40;99.90;;;;;;6099834;23;20494;-83
2021/07/09 09:26:50;;;;;;;12.02;7.45;;;21.20;99.90;;;;;;6099555;23;20022;-84
2021/07/09 09:29:36;;;;;;;11.85;6.93;;;21.10;99.90;;;;;;6103052;23;20026;-82
2021/07/09 09:32:09;;;;;;;11.98;7.55;;;21.40;99.90;;;;;;6123328;23;20025;-83
2021/07/09 09:34:49;;;;;;;8.18;6.50;;;21.40;99.90;;;;;;6099589;23;20014;-81
2021/07/09 09:37:19;;;;;;;10.68;6.70;;;21.30;99.90;;;;;;6123037;23;20097;-83
2021/07/09 09:39:47;;;;;;;7.60;5.68;;;21.70;99.90;;;;;;6154710;23;20033;-83
2021/07/09 09:42:39;;;;;;;11.05;6.63;;;21.60;99.90;;;;;;6158656;23;20412;-86
2021/07/09 09:45:20;;;;;;;10.60;6.40;;;21.40;99.90;;;;;;6132318;23;20017;-84
2021/07/09 09:47:50;;;;;;;11.20;7.50;;;21.40;99.90;;;;;;6132407;23;20113;-82
2021/07/09 09:50:19;;;;;;;10.77;7.00;;;21.60;99.90;;;;;;6164448;23;20458;-82
2021/07/09 09:52:45;;;;;;;11.63;6.90;;;21.60;99.90;;;;;;6192188;23;20028;-82
2021/07/09 09:55:14;;;;;;;9.75;7.40;;;21.60;99.90;;;;;;6192225;23;20072;-81
2021/07/09 09:57:42;;;;;;;10.43;7.22;;;21.40;99.90;;;;;;6265651;22;20019;-82
2021/07/09 10:00:28;;;;;;;9.52;7.20;;;21.60;99.90;;;;;;6310018;22;20188;-81
2021/07/09 10:02:55;;;;;;;10.45;6.13;;;21.80;99.90;;;;;;6338114;22;20022;-82
2021/07/09 10:05:20;;;;;;;9.52;6.18;;;21.80;99.90;;;;;;6348366;22;20466;-81
2021/07/09 10:07:47;;;;;;;10.35;6.80;;;21.80;99.90;;;;;;6337950;22;20007;-82
2021/07/09 10:10:19;;;;;;;10.23;6.00;;;21.90;99.90;;;;;;6349033;22;20015;-82
2021/07/09 10:12:49;;;;;;;9.35;6.10;;;22.40;99.90;;;;;;6349205;22;20453;-85
2021/07/09 10:15:16;;;;;;;8.50;5.65;;;22.80;99.90;;;;;;6310483;22;20143;-83
2021/07/09 10:17:43;;;;;;;12.77;6.28;;;23.40;99.90;;;;;;6310979;22;20011;-83
2021/07/09 10:20:09;;;;;;;9.50;6.28;;;23.80;99.90;;;;;;6322177;22;20505;-83
2021/07/09 10:22:35;;;;;;;10.13;6.38;;;23.00;99.90;;;;;;6338208;22;20512;-82
2021/07/09 10:25:02;;;;;;;11.55;6.10;;;22.60;99.90;;;;;;6310943;22;20010;-83
2021/07/09 10:27:28;;;;;;;8.48;6.90;;;22.10;99.90;;;;;;6323036;22;20426;-83
2021/07/09 10:29:54;;;;;;;12.00;7.70;;;21.80;99.90;;;;;;6287812;22;20018;-82
2021/07/09 10:32:34;;;;;;;10.70;7.28;;;21.30;99.90;;;;;;6340581;22;20021;-82
2021/07/09 10:35:01;;;;;;;9.10;7.20;;;21.50;99.90;;;;;;6311492;22;20326;-82
2021/07/09 10:37:31;;;;;;;9.40;6.03;;;21.80;99.90;;;;;;6310411;22;20068;-82
2021/07/09 10:40:05;;;;;;;7.20;5.57;;;21.90;99.90;;;;;;6284685;22;20010;-83
2021/07/09 10:42:39;;;;;;;10.15;6.60;;;21.70;99.90;;;;;;6349197;22;20113;-83
2021/07/09 10:45:24;;;;;;;;;;;21.80;99.90;;;;;;6339597;22;20038;-82
2021/07/09 10:47:49;;;;;;;;;;;22.00;99.90;;;;;;6311754;22;20337;-84
2021/07/09 10:50:15;;;;;;;;;;;22.00;99.90;;;;;;6350228;22;19918;-84
2021/07/09 10:52:45;;;;;;;;;;;22.00;99.90;;;;;;6310836;22;20334;-81
2021/07/09 10:55:46;;;;;;;;;;;22.00;99.90;;;;;;6350721;22;19960;-82
2021/07/09 10:58:17;;;;;;;;;;;22.30;99.90;;;;;;6134799;23;19916;-82
2021/07/09 11:00:45;;;;;;;;;;;22.30;99.90;;;;;;6161324;23;19920;-83
2021/07/09 11:03:12;;;;;;;;;;;22.50;99.90;;;;;;6159632;23;19938;-83
2021/07/09 11:05:44;;;;;;;;;;;22.30;99.90;;;;;;6158259;23;19912;-82
2021/07/09 11:08:32;;;;;;;;;;;22.40;99.90;;;;;;6134050;23;19967;-83
2021/07/09 11:10:58;;;;;;;;;;;22.40;99.90;;;;;;6157316;23;19955;-82
2021/07/09 11:13:43;;;;;;;;;;;22.20;99.90;;;;;;6157825;23;19931;-82
2021/07/09 11:16:17;;;;;;;;;;;22.10;99.90;;;;;;6158147;23;20339;-82
2021/07/09 11:18:50;;;;;;;;;;;22.60;99.90;;;;;;6156927;23;19916;-83
2021/07/09 11:21:36;;;;;;;;;;;22.50;99.90;;;;;;6182937;23;19970;-82
2021/07/09 11:24:08;;;;;;;;;;;23.10;99.90;;;;;;6160796;23;20031;-84
2021/07/09 11:26:35;;;;;;;;;;;23.10;99.90;;;;;;6156248;23;19920;-82
2021/07/09 11:29:16;;;;;;;;;;;22.90;99.90;;;;;;6131959;23;19959;-81
2021/07/09 11:31:42;;;;;;;;;;;22.70;99.90;;;;;;6203061;22;20238;-82
2021/07/09 11:34:11;;;;;;;;;;;22.80;99.90;;;;;;6311784;22;19918;-82
2021/07/09 11:36:46;;;;;;;;;;;23.00;99.90;;;;;;6289271;22;20331;-82
2021/07/09 11:39:17;;;;;;;;;;;22.80;99.90;;;;;;6278877;22;19915;-82
2021/07/09 11:42:02;;;;;;;;;;;22.90;99.90;;;;;;6280545;22;19911;-81
2021/07/09 11:44:29;;;;;;;;;;;22.80;99.90;;;;;;6280314;22;19918;-81
2021/07/09 11:46:56;;;;;;;;;;;22.20;99.90;;;;;;6281495;22;19918;-81
2021/07/09 11:49:29;;;;;;;;;;;22.00;99.90;;;;;;6319168;22;19971;-81
2021/07/09 11:51:58;;;;;;;;;;;21.70;99.90;;;;;;6319790;22;19911;-81
2021/07/09 11:54:24;;;;;;;;;;;21.80;99.90;;;;;;6281078;22;19911;-81
2021/07/09 11:56:51;;;;;;;;;;;21.50;99.90;;;;;;6280673;22;20342;-82
2021/07/09 11:59:21;;;;;;;;;;;21.60;99.90;;;;;;6307422;22;19919;-82
2021/07/09 12:02:07;;;;;;;;;;;21.50;99.90;;;;;;6280252;22;20338;-82
2021/07/09 12:04:40;;;;;;;;;;;21.60;99.90;;;;;;6128371;23;19912;-82
2021/07/09 12:07:25;;;;;;;;;;;21.50;99.90;;;;;;6125963;23;19913;-83
2021/07/09 12:09:53;;;;;;;;;;;21.40;99.90;;;;;;6154972;23;19913;-81
2021/07/09 12:12:19;;;;;;;;;;;21.40;99.90;;;;;;6136690;23;19986;-81
2021/07/09 12:14:51;;;;;;;;;;;21.40;99.90;;;;;;6152522;23;19971;-83
2021/07/09 12:17:16;;;;;;;;;;;21.60;99.90;;;;;;6131744;23;19923;-83
2021/07/09 12:19:55;;;;;;;;;;;21.80;99.90;;;;;;6152619;23;19958;-83
2021/07/09 12:22:22;;;;;;;;;;;21.80;99.90;;;;;;6127516;23;19932;-83
2021/07/09 12:24:50;;;;;;;;;;;21.80;99.90;;;;;;6137341;23;19959;-84
2021/07/09 12:27:15;;;;;;;;;;;22.20;99.90;;;;;;6126967;23;19913;-83
2021/07/09 12:29:41;;;;;;;;;;;22.50;99.90;;;;;;6102859;23;19963;-83
2021/07/09 12:32:07;;;;;;;;;;;23.10;99.90;;;;;;6151379;23;19916;-83
2021/07/09 12:34:32;;;;;;;;;;;23.50;99.90;;;;;;6127119;23;20406;-83
2021/07/09 12:37:02;;;;;;;;;;;23.50;99.90;;;;;;6152983;23;20050;-84
2021/07/09 12:39:28;;;;;;;;;;;23.80;99.90;;;;;;6132671;23;19943;-83
2021/07/09 12:42:08;;;;;;;;;;;23.20;99.90;;;;;;6254058;22;19998;-81
2021/07/09 12:44:34;;;;;;;;;;;23.50;99.90;;;;;;6337323;22;20282;-82
2021/07/09 12:47:00;;;;;;;;;;;23.70;99.90;;;;;;6315135;22;19911;-83
2021/07/09 12:49:26;;;;;;;;;;;23.60;99.90;;;;;;6320014;22;19910;-82
2021/07/09 12:51:52;;;;;;;;;;;23.40;99.90;;;;;;6309763;22;19918;-82
2021/07/09 12:54:18;;;;;;;;;;;23.80;99.90;;;;;;6336761;22;19915;-82
2021/07/09 12:56:48;;;;;;;;;;;24.30;99.90;;;;;;6347649;22;20027;-82